You are listening to:
KJFK Tower 123.9 - New York, New York, United States

KJFK 122051Z 20012KT 10SM BKN065 BKN250 22/16 A3000 RMK AO2 SLP158 T02170156 56005 $

If stream doesn't start automatically press the play button
If stream stops then reload player then press play